Time;durP1;ratioP1;P1;durP2;ratioP2;P2;SDS_P1;SDS_P2;PMS_P1;PMS_P2;Temp;Humidity;BMP_temperature;BMP_pressure;BME280_temperature;BME280_humidity;BME280_pressure;Samples;Min_cycle;Max_cycle;Signal;HPM_P1;HPM_P2
2022/11/10 00:00:26;;;;;;;17.88;9.60;;;;;;;9.84;78.31;99275.56;5087088;28;20469;-66
2022/11/10 00:03:10;;;;;;;14.05;9.93;;;;;;;9.78;78.00;99287.88;5073883;28;20040;-65
2022/11/10 00:05:55;;;;;;;17.08;10.15;;;;;;;9.75;78.93;99283.06;5072243;28;20508;-66
2022/11/10 00:08:39;;;;;;;18.00;9.40;;;;;;;9.80;78.50;99285.03;5073835;28;20075;-66
2022/11/10 00:11:23;;;;;;;16.60;9.65;;;;;;;9.80;78.27;99283.16;5073964;28;20132;-66
2022/11/10 00:17:11;;;;;;;21.85;10.88;;;;;;;9.76;77.74;99284.66;5072375;28;20551;-65
2022/11/10 00:19:55;;;;;;;16.17;10.30;;;;;;;9.75;78.70;99281.22;5073527;28;20423;-66
2022/11/10 00:22:40;;;;;;;15.63;9.93;;;;;;;9.68;78.43;99277.91;5072123;28;20098;-67
2022/11/10 00:25:25;;;;;;;17.23;10.52;;;;;;;9.73;78.71;99271.91;5072247;28;20055;-65
2022/11/10 00:28:10;;;;;;;19.73;10.38;;;;;;;9.76;77.80;99271.44;5073390;28;20052;-67
2022/11/10 00:30:54;;;;;;;18.80;10.70;;;;;;;9.75;77.92;99270.63;5072425;28;20490;-65
2022/11/10 00:33:40;;;;;;;18.08;10.27;;;;;;;9.50;78.05;99239.19;5074444;28;20082;-66
2022/11/10 00:36:24;;;;;;;17.40;10.70;;;;;;;9.69;78.22;99279.50;5065621;28;20051;-64
2022/11/10 00:39:10;;;;;;;16.25;10.63;;;;;;;9.67;78.40;99284.22;5082184;28;20048;-66
2022/11/10 00:41:54;;;;;;;17.10;10.00;;;;;;;9.70;78.20;99280.31;5082798;28;20044;-65
2022/11/10 00:44:39;;;;;;;19.63;11.13;;;;;;;9.71;78.29;99281.94;5090505;28;20078;-65
2022/11/10 00:47:23;;;;;;;17.13;10.27;;;;;;;9.70;78.51;99273.16;5093375;28;20127;-66
2022/11/10 00:50:08;;;;;;;15.15;10.68;;;;;;;9.70;78.13;99275.00;5091915;28;20040;-66
2022/11/10 00:52:52;;;;;;;19.05;10.18;;;;;;;9.65;78.40;99267.78;5075225;28;20067;-66
2022/11/10 00:55:37;;;;;;;15.27;10.25;;;;;;;9.67;78.53;99267.53;5074712;28;20489;-65
2022/11/10 00:58:22;;;;;;;15.52;10.20;;;;;;;9.67;78.62;99257.75;5092874;28;20097;-65
2022/11/10 01:01:06;;;;;;;19.42;10.35;;;;;;;9.72;78.37;99263.16;5092918;28;20040;-66
2022/11/10 01:03:52;;;;;;;18.45;10.55;;;;;;;9.74;78.58;99249.69;5092927;28;20417;-67
2022/11/10 01:06:36;;;;;;;17.50;10.45;;;;;;;9.72;77.97;99249.91;5074278;28;20056;-66
2022/11/10 01:09:20;;;;;;;17.65;10.90;;;;;;;9.73;78.26;99259.47;5092887;28;20113;-66
2022/11/10 01:12:05;;;;;;;18.25;10.45;;;;;;;9.74;78.03;99255.78;5093027;28;20127;-66
2022/11/10 01:14:49;;;;;;;18.85;11.52;;;;;;;9.69;78.22;99262.81;5092878;28;20063;-66
2022/11/10 01:17:34;;;;;;;17.77;10.18;;;;;;;9.67;78.38;99249.00;5074256;28;20085;-65
2022/11/10 01:20:18;;;;;;;14.90;10.32;;;;;;;9.67;77.88;99259.59;5092635;28;20089;-66
2022/11/10 01:23:02;;;;;;;20.30;11.00;;;;;;;9.69;77.70;99260.19;5092784;28;20529;-66
2022/11/10 01:25:47;;;;;;;15.32;10.63;;;;;;;9.73;77.76;99261.31;5092592;28;20052;-66
2022/11/10 01:28:31;;;;;;;19.75;11.68;;;;;;;9.63;78.15;99256.63;5092188;28;20393;-66
2022/11/10 01:31:20;;;;;;;20.98;11.45;;;;;;;9.62;79.04;99248.91;5091331;28;20052;-66
2022/11/10 01:34:04;;;;;;;17.60;11.00;;;;;;;9.61;78.12;99252.59;5092275;28;20413;-66
2022/11/10 01:36:48;;;;;;;16.38;11.32;;;;;;;9.67;78.27;99254.31;5074163;28;20561;-65
2022/11/10 01:39:32;;;;;;;18.65;11.00;;;;;;;9.41;78.98;99216.78;5074041;28;20036;-65
2022/11/10 01:42:40;;;;;;;15.93;10.73;;;;;;;9.67;78.07;99255.09;5091179;28;20056;-65
2022/11/10 01:45:24;;;;;;;20.02;11.65;;;;;;;9.65;77.96;99251.13;5092063;28;20123;-65
2022/11/10 01:48:13;;;;;;;20.38;11.68;;;;;;;9.63;78.18;99261.91;5091956;28;20112;-66
2022/11/10 01:51:07;;;;;;;18.73;10.80;;;;;;;9.62;78.08;99257.69;5090617;28;20127;-66
2022/11/10 01:53:59;;;;;;;16.98;11.57;;;;;;;9.63;78.14;99261.91;5091223;28;20088;-65
2022/11/10 01:56:47;;;;;;;19.17;10.63;;;;;;;9.61;78.08;99263.97;5073691;28;20048;-67
2022/11/10 01:59:35;;;;;;;18.05;10.68;;;;;;;9.62;78.11;99254.19;5091788;28;20040;-67
2022/11/10 02:02:24;;;;;;;23.52;11.27;;;;;;;9.57;78.51;99270.78;5090557;28;20048;-67
2022/11/10 02:05:08;;;;;;;19.63;11.50;;;;;;;9.58;78.30;99261.81;5076106;28;20043;-66
2022/11/10 02:07:53;;;;;;;22.48;11.85;;;;;;;9.65;78.46;99262.50;5091500;28;20176;-65
2022/11/10 02:10:38;;;;;;;19.27;11.70;;;;;;;9.60;77.99;99262.38;5059291;28;20044;-67
2022/11/10 02:13:22;;;;;;;19.17;11.88;;;;;;;9.55;78.65;99265.72;5090560;28;20420;-67
2022/11/10 02:16:06;;;;;;;18.85;11.90;;;;;;;9.52;78.85;99257.44;5090522;28;20052;-65
2022/11/10 02:18:51;;;;;;;19.33;11.65;;;;;;;9.52;79.13;99249.50;5076514;28;20044;-66
2022/11/10 02:21:35;;;;;;;17.50;11.77;;;;;;;9.49;78.71;99248.13;5091329;28;20052;-67
2022/11/10 02:24:20;;;;;;;18.60;11.82;;;;;;;9.52;78.46;99260.09;5072846;28;20051;-66
2022/11/10 02:27:04;;;;;;;19.92;11.90;;;;;;;9.57;78.18;99256.75;5070246;28;20052;-66
2022/11/10 02:29:48;;;;;;;16.15;11.10;;;;;;;9.50;78.40;99264.81;5056303;28;20052;-65
2022/11/10 02:32:32;;;;;;;17.85;11.75;;;;;;;9.42;78.72;99254.59;5071316;28;20474;-66
2022/11/10 02:35:17;;;;;;;20.13;11.82;;;;;;;9.53;78.02;99257.22;5055795;28;20041;-65
2022/11/10 02:38:01;;;;;;;20.90;11.68;;;;;;;9.57;78.83;99262.06;5071070;28;20045;-67
2022/11/10 02:40:45;;;;;;;21.40;11.75;;;;;;;9.57;78.18;99267.34;5071004;28;20056;-66
2022/11/10 02:43:29;;;;;;;18.35;11.70;;;;;;;9.49;78.49;99248.13;5056129;28;20036;-67
2022/11/10 02:46:14;;;;;;;20.95;12.10;;;;;;;9.49;78.23;99258.72;5071028;28;20522;-67
2022/11/10 02:48:58;;;;;;;17.15;10.85;;;;;;;9.50;78.08;99262.16;5070767;28;20476;-67
2022/11/10 02:51:42;;;;;;;20.25;11.38;;;;;;;9.55;78.48;99260.44;5055808;28;20040;-67
2022/11/10 02:54:26;;;;;;;22.40;11.60;;;;;;;9.53;77.72;99259.88;5055658;28;20068;-66
2022/11/10 02:57:10;;;;;;;18.95;12.18;;;;;;;9.52;78.11;99262.75;5055773;28;20071;-66
2022/11/10 02:59:54;;;;;;;18.00;12.20;;;;;;;9.48;78.11;99262.41;5069811;28;20586;-65
2022/11/10 03:02:38;;;;;;;18.63;10.60;;;;;;;9.50;77.89;99262.16;5055462;28;20041;-66
2022/11/10 03:05:22;;;;;;;19.75;12.57;;;;;;;9.48;78.37;99256.31;5074934;28;20497;-66
2022/11/10 03:08:07;;;;;;;18.13;11.60;;;;;;;9.48;77.84;99251.03;5059674;28;20045;-66
2022/11/10 03:10:55;;;;;;;19.20;11.75;;;;;;;9.51;77.93;99264.59;5056891;28;20047;-66
2022/11/10 03:13:39;;;;;;;18.27;11.57;;;;;;;9.44;77.62;99252.50;5059752;28;20040;-65
2022/11/10 03:16:24;;;;;;;20.00;12.23;;;;;;;9.47;77.87;99258.16;5073841;28;20487;-66
2022/11/10 03:19:08;;;;;;;18.60;11.60;;;;;;;9.44;78.62;99255.16;5074754;28;20040;-66
2022/11/10 03:21:52;;;;;;;19.05;11.27;;;;;;;9.38;78.41;99242.88;5075169;28;20044;-65
2022/11/10 03:24:37;;;;;;;17.48;10.73;;;;;;;9.37;78.55;99251.84;5074740;28;20048;-66
2022/11/10 03:27:21;;;;;;;20.73;11.77;;;;;;;9.27;78.68;99237.38;5074872;28;20539;-66
2022/11/10 03:30:06;;;;;;;18.42;11.90;;;;;;;9.31;78.69;99243.00;5059418;28;20040;-66
2022/11/10 03:32:50;;;;;;;17.95;11.43;;;;;;;9.32;78.54;99236.66;5056528;28;20036;-67
2022/11/10 03:35:34;;;;;;;22.58;12.63;;;;;;;9.21;77.96;99216.34;5074580;28;20072;-65
2022/11/10 03:38:19;;;;;;;18.25;12.57;;;;;;;9.35;78.43;99238.84;5074591;28;20177;-66
2022/11/10 03:41:03;;;;;;;21.40;12.23;;;;;;;9.35;78.35;99238.84;5059111;28;20048;-66
2022/11/10 03:43:47;;;;;;;23.90;12.43;;;;;;;9.29;78.56;99237.97;5056429;28;20048;-66
2022/11/10 03:46:32;;;;;;;19.73;12.82;;;;;;;9.30;78.40;99236.09;5058893;28;20059;-65
2022/11/10 03:49:16;;;;;;;19.92;12.05;;;;;;;9.29;78.32;99223.91;5074292;28;20088;-65
2022/11/10 03:52:01;;;;;;;18.65;12.02;;;;;;;9.28;79.01;99224.94;5056125;28;20516;-67
2022/11/10 03:54:45;;;;;;;18.63;11.93;;;;;;;9.26;78.36;99227.00;5074068;28;20041;-66
2022/11/10 03:57:29;;;;;;;19.00;11.80;;;;;;;9.28;78.57;99215.16;5058362;28;20127;-66
2022/11/10 04:00:14;;;;;;;22.85;12.15;;;;;;;9.25;78.12;99217.47;5074069;28;20044;-65
2022/11/10 04:02:58;;;;;;;23.25;12.50;;;;;;;9.26;78.88;99219.06;5055895;28;20490;-66
2022/11/10 04:08:57;;;;;;;19.38;11.85;;;;;;;9.22;78.70;99210.81;5073975;28;20055;-66
2022/11/10 04:21:03;;;;;;;20.85;12.85;;;;;;;9.19;79.00;99206.00;5073475;28;20059;-66
2022/11/10 04:23:47;;;;;;;22.67;13.50;;;;;;;9.20;78.34;99220.81;5072210;28;20048;-67
2022/11/10 04:26:32;;;;;;;19.25;12.52;;;;;;;9.22;78.35;99225.88;5058365;28;20057;-66
2022/11/10 04:29:17;;;;;;;22.77;13.30;;;;;;;9.23;78.10;99230.91;5058172;28;20048;-66
2022/11/10 04:32:02;;;;;;;20.45;12.82;;;;;;;9.14;78.48;99234.97;5058260;28;20481;-66
2022/11/10 04:34:46;;;;;;;21.83;13.13;;;;;;;9.19;78.50;99235.06;5073277;28;20032;-67
2022/11/10 04:37:30;;;;;;;22.33;13.65;;;;;;;9.16;79.05;99245.31;5058189;28;20101;-67
2022/11/10 04:40:14;;;;;;;22.05;13.60;;;;;;;9.19;78.93;99247.50;5057397;28;20417;-67
2022/11/10 04:42:59;;;;;;;21.77;13.85;;;;;;;9.20;78.89;99241.97;5073289;28;20044;-66
2022/11/10 04:45:43;;;;;;;23.83;13.30;;;;;;;9.13;78.09;99240.50;5071992;28;20132;-67
2022/11/10 04:48:27;;;;;;;23.90;13.65;;;;;;;9.07;78.75;99243.03;5073032;28;20051;-65
2022/11/10 04:51:12;;;;;;;19.90;12.77;;;;;;;9.04;78.83;99240.03;5054863;28;20048;-66
2022/11/10 04:53:57;;;;;;;24.45;14.13;;;;;;;9.00;79.54;99241.50;5054920;28;20517;-66
2022/11/10 04:56:41;;;;;;;22.25;13.02;;;;;;;9.04;79.51;99243.47;5071808;28;20052;-66
2022/11/10 04:59:26;;;;;;;20.10;12.98;;;;;;;9.10;79.13;99239.13;5073302;28;20048;-67
2022/11/10 05:02:10;;;;;;;19.20;12.77;;;;;;;9.02;78.88;99234.97;5072840;28;20045;-67
2022/11/10 05:04:54;;;;;;;21.35;13.02;;;;;;;9.09;78.60;99243.59;5057568;28;20409;-69
2022/11/10 05:07:38;;;;;;;24.58;13.45;;;;;;;9.09;78.97;99237.50;5072504;28;20156;-65
2022/11/10 05:10:24;;;;;;;22.65;13.30;;;;;;;9.02;78.82;99237.59;5054528;28;20052;-65
2022/11/10 05:13:09;;;;;;;22.95;12.85;;;;;;;8.90;79.47;99249.22;5073408;28;20044;-66
2022/11/10 05:15:53;;;;;;;23.48;13.52;;;;;;;8.90;79.63;99250.03;5073339;28;20105;-66
2022/11/10 05:18:38;;;;;;;21.25;12.77;;;;;;;8.95;79.56;99244.88;5073276;28;20040;-66
2022/11/10 05:21:22;;;;;;;26.40;14.05;;;;;;;8.99;78.55;99230.13;5072443;28;20127;-65
2022/11/10 05:24:07;;;;;;;22.83;13.70;;;;;;;9.02;78.11;99229.69;5056538;28;20589;-66
2022/11/10 05:26:50;;;;;;;19.25;13.07;;;;;;;8.92;78.76;99236.59;5056953;28;20036;-64
2022/11/10 05:29:34;;;;;;;22.33;13.98;;;;;;;8.88;78.53;99241.50;5072487;28;20048;-62
2022/11/10 05:32:19;;;;;;;23.38;13.82;;;;;;;8.92;78.29;99239.25;5056935;28;20044;-62
2022/11/10 05:35:03;;;;;;;22.95;13.82;;;;;;;8.94;78.83;99251.19;5056957;28;20044;-61
2022/11/10 05:37:48;;;;;;;23.88;13.05;;;;;;;8.90;79.10;99243.94;5072108;28;20052;-62
2022/11/10 05:40:33;;;;;;;25.95;13.57;;;;;;;8.85;78.56;99250.72;5070744;28;20046;-61
2022/11/10 05:43:17;;;;;;;21.85;13.60;;;;;;;8.83;78.81;99255.44;5056380;28;20135;-61
2022/11/10 05:46:02;;;;;;;18.92;12.65;;;;;;;8.86;78.60;99248.88;5071747;28;20049;-62
2022/11/10 05:48:46;;;;;;;20.88;12.93;;;;;;;8.92;78.11;99252.47;5053715;28;20151;-61
2022/11/10 05:51:30;;;;;;;20.40;12.70;;;;;;;8.92;78.30;99253.25;5071952;28;20448;-62
2022/11/10 05:54:15;;;;;;;22.33;13.68;;;;;;;8.94;78.11;99258.31;5053534;28;20048;-64
2022/11/10 05:56:59;;;;;;;19.10;11.57;;;;;;;8.98;77.96;99259.47;5070288;28;20052;-63
2022/11/10 05:59:43;;;;;;;20.60;12.70;;;;;;;8.98;77.21;99262.91;5071615;28;20041;-63
2022/11/10 06:02:30;;;;;;;20.20;12.57;;;;;;;8.99;76.92;99263.72;5065181;28;20048;-63
2022/11/10 06:05:15;;;;;;;21.48;12.65;;;;;;;8.99;77.34;99261.88;5053124;28;20568;-63
2022/11/10 06:08:00;;;;;;;18.45;12.60;;;;;;;9.02;77.11;99252.69;5050512;28;20049;-64
2022/11/10 06:10:45;;;;;;;22.20;13.35;;;;;;;9.02;77.37;99255.31;5046604;28;20048;-63
2022/11/10 06:13:29;;;;;;;19.73;13.02;;;;;;;8.98;77.17;99259.47;5047357;28;20099;-62
2022/11/10 06:16:13;;;;;;;23.63;13.23;;;;;;;8.91;77.03;99258.75;5048596;28;20600;-63
2022/11/10 06:18:57;;;;;;;18.27;11.95;;;;;;;8.82;77.41;99260.94;5047381;28;20053;-64
2022/11/10 06:21:41;;;;;;;20.35;12.30;;;;;;;8.78;77.58;99257.16;5047381;28;20063;-64
2022/11/10 06:24:26;;;;;;;21.65;13.07;;;;;;;8.87;77.23;99258.41;5046142;28;20079;-63
2022/11/10 06:27:10;;;;;;;19.40;12.40;;;;;;;8.87;77.27;99264.50;5059569;28;20049;-61
2022/11/10 06:29:54;;;;;;;19.38;11.70;;;;;;;8.95;76.20;99259.94;5048787;28;20036;-63
2022/11/10 06:32:43;;;;;;;21.88;13.07;;;;;;;8.86;76.14;99257.63;5049896;28;20410;-63
2022/11/10 06:35:28;;;;;;;20.60;11.70;;;;;;;8.84;76.31;99264.16;5044209;28;20036;-62
2022/11/10 06:38:13;;;;;;;18.67;11.82;;;;;;;8.81;76.90;99262.78;5046574;28;20045;-63
2022/11/10 06:40:57;;;;;;;19.48;11.68;;;;;;;8.75;77.34;99255.78;5048992;28;20239;-63
2022/11/10 06:43:41;;;;;;;20.02;11.88;;;;;;;8.84;76.65;99262.31;5061130;28;20037;-64
2022/11/10 06:46:25;;;;;;;20.25;11.25;;;;;;;8.89;76.34;99258.22;5047287;28;20056;-62
2022/11/10 06:49:09;;;;;;;18.25;11.45;;;;;;;8.88;75.92;99262.66;5064320;28;20049;-63
2022/11/10 06:51:53;;;;;;;18.65;12.18;;;;;;;8.83;76.75;99252.00;5044924;28;20052;-64
2022/11/10 06:54:38;;;;;;;17.95;11.45;;;;;;;8.88;76.52;99252.09;5046356;28;20328;-64
2022/11/10 06:57:22;;;;;;;17.42;10.80;;;;;;;8.90;76.46;99255.31;5059458;28;20052;-62
2022/11/10 07:00:11;;;;;;;16.88;10.75;;;;;;;8.95;76.49;99252.00;5064510;28;20048;-63
2022/11/10 07:03:04;;;;;;;21.00;12.30;;;;;;;8.96;75.93;99269.47;5060983;28;20049;-64
2022/11/10 07:05:48;;;;;;;23.67;11.40;;;;;;;8.99;75.79;99261.06;5048004;28;20485;-63
2022/11/10 07:08:32;;;;;;;17.38;11.20;;;;;;;9.08;75.94;99268.41;5069238;28;20127;-63
2022/11/10 07:11:16;;;;;;;19.83;11.38;;;;;;;8.98;75.61;99276.13;5049655;28;20505;-64
2022/11/10 07:14:00;;;;;;;19.50;11.20;;;;;;;9.02;75.53;99285.19;5068695;28;20051;-65
2022/11/10 07:16:52;;;;;;;17.77;10.77;;;;;;;9.05;75.72;99276.81;5047033;28;20049;-65
2022/11/10 07:19:36;;;;;;;20.50;11.95;;;;;;;9.16;74.73;99269.91;5049901;28;20501;-65
2022/11/10 07:22:22;;;;;;;17.40;11.00;;;;;;;9.28;74.97;99273.34;5021559;28;20049;-62
2022/11/10 07:25:06;;;;;;;18.20;11.85;;;;;;;9.26;73.79;99272.78;5064338;28;20064;-65
2022/11/10 07:27:58;;;;;;;18.73;11.65;;;;;;;9.13;74.50;99270.38;5050972;28;20072;-65
2022/11/10 07:30:43;;;;;;;19.48;11.27;;;;;;;9.01;74.66;99272.22;5067603;28;20098;-66
2022/11/10 07:33:27;;;;;;;20.13;12.15;;;;;;;9.02;74.61;99271.19;5065384;28;20049;-65
2022/11/10 07:36:12;;;;;;;19.45;11.85;;;;;;;9.15;74.91;99260.38;5051981;28;20493;-65
2022/11/10 07:38:56;;;;;;;18.60;12.00;;;;;;;9.02;74.86;99271.19;5051190;28;20048;-64
2022/11/10 07:41:40;;;;;;;21.08;11.57;;;;;;;9.17;74.43;99274.16;5067425;28;20072;-63
2022/11/10 07:44:26;;;;;;;18.90;11.75;;;;;;;9.17;74.62;99274.16;5066481;28;20040;-64
2022/11/10 07:47:11;;;;;;;19.95;11.48;;;;;;;9.17;74.38;99278.66;5038295;28;20131;-62
2022/11/10 07:49:55;;;;;;;21.10;11.63;;;;;;;9.22;74.04;99279.56;5055661;28;20044;-62
2022/11/10 07:52:39;;;;;;;21.45;11.98;;;;;;;9.16;74.31;99275.22;5069516;28;20049;-61
2022/11/10 07:55:24;;;;;;;21.58;11.80;;;;;;;9.14;74.24;99252.66;5054900;28;20529;-63
2022/11/10 07:58:10;;;;;;;23.98;11.80;;;;;;;9.16;74.05;99269.91;5072619;28;20036;-64
2022/11/10 08:00:55;;;;;;;20.00;11.85;;;;;;;9.03;74.62;99276.25;5055613;28;20048;-63
2022/11/10 08:03:38;;;;;;;17.65;11.55;;;;;;;9.12;74.35;99266.13;5069585;28;20037;-64
2022/11/10 08:06:23;;;;;;;22.20;11.77;;;;;;;9.21;74.12;99271.88;5051569;28;20056;-64
2022/11/10 08:09:18;;;;;;;18.40;11.95;;;;;;;9.24;73.84;99266.94;5068736;28;20159;-62
2022/11/10 08:12:02;;;;;;;17.88;11.10;;;;;;;9.21;73.92;99262.09;5055400;28;20141;-63
2022/11/10 08:14:47;;;;;;;16.27;10.68;;;;;;;9.19;73.73;99272.09;5071025;28;20140;-62
2022/11/10 08:17:31;;;;;;;20.95;12.23;;;;;;;9.25;73.96;99276.47;5068512;28;20045;-62
2022/11/10 08:20:16;;;;;;;20.83;12.43;;;;;;;9.31;73.81;99269.44;5054965;28;20443;-62
2022/11/10 08:23:03;;;;;;;18.48;11.70;;;;;;;9.25;73.86;99268.53;5054855;28;20401;-61
2022/11/10 08:25:51;;;;;;;19.25;11.73;;;;;;;9.40;73.70;99277.84;5068301;28;20048;-63
2022/11/10 08:28:36;;;;;;;19.35;11.43;;;;;;;9.47;72.46;99270.56;5054955;28;20055;-63
2022/11/10 08:31:20;;;;;;;17.80;11.40;;;;;;;9.41;73.63;99274.16;5049797;28;20044;-62
2022/11/10 08:34:04;;;;;;;22.73;11.93;;;;;;;9.47;73.27;99283.78;5068356;28;20055;-65
2022/11/10 08:36:52;;;;;;;19.27;11.82;;;;;;;9.59;72.51;99278.47;5068859;28;20048;-64
2022/11/10 08:39:36;;;;;;;20.65;12.07;;;;;;;9.67;72.58;99276.28;5067783;28;20040;-65
2022/11/10 08:42:20;;;;;;;23.45;12.25;;;;;;;9.55;72.28;99278.16;5068192;28;20044;-66
2022/11/10 08:45:05;;;;;;;19.50;11.60;;;;;;;9.61;72.86;99273.78;5068339;28;20041;-61
2022/11/10 08:47:59;;;;;;;18.20;11.65;;;;;;;9.55;72.72;99267.56;5068644;28;20123;-63
2022/11/10 08:50:45;;;;;;;21.30;11.82;;;;;;;9.64;72.15;99278.59;5054902;28;20053;-62
2022/11/10 08:53:29;;;;;;;22.45;12.88;;;;;;;9.67;71.96;99278.94;5055800;28;20344;-63
2022/11/10 08:56:45;;;;;;;20.55;12.55;;;;;;;9.65;72.32;99267.78;5052435;28;20048;-64
2022/11/10 08:59:47;;;;;;;19.92;12.23;;;;;;;9.54;73.26;99269.41;5049400;28;20147;-62
2022/11/10 09:02:31;;;;;;;23.15;13.38;;;;;;;9.53;73.25;99267.00;5070957;28;20097;-62
2022/11/10 09:05:16;;;;;;;22.77;13.68;;;;;;;9.52;72.91;99279.41;5040077;28;20471;-64
2022/11/10 09:08:32;;;;;;;20.88;12.75;;;;;;;9.56;72.40;99271.84;5038106;28;20622;-63
2022/11/10 09:11:17;;;;;;;21.48;12.60;;;;;;;9.60;72.56;99282.75;5187563;22;20097;-63
2022/11/10 09:14:01;;;;;;;22.95;12.35;;;;;;;9.62;72.30;99267.44;5126698;27;20065;-64
2022/11/10 09:16:46;;;;;;;22.60;13.68;;;;;;;9.53;72.59;99267.00;5131210;27;20130;-63
2022/11/10 09:19:30;;;;;;;25.83;13.55;;;;;;;9.52;73.16;99273.31;5129168;27;20035;-64
2022/11/10 09:22:15;;;;;;;27.67;13.55;;;;;;;9.64;72.73;99268.00;5109888;27;20043;-63
2022/11/10 09:24:59;;;;;;;21.60;12.95;;;;;;;9.73;72.55;99266.59;5115046;27;20447;-63
2022/11/10 09:27:43;;;;;;;19.98;12.68;;;;;;;9.69;72.27;99255.69;5110294;27;20889;-64
2022/11/10 09:30:28;;;;;;;23.20;12.82;;;;;;;9.68;72.11;99263.88;5112919;27;20117;-64
2022/11/10 09:33:12;;;;;;;21.67;12.98;;;;;;;9.65;71.93;99254.56;5129360;27;20042;-62
2022/11/10 09:35:58;;;;;;;23.00;13.55;;;;;;;9.68;72.58;99238.22;5100855;27;20130;-62
2022/11/10 09:38:42;;;;;;;23.48;13.95;;;;;;;9.66;72.65;99244.78;5128852;27;20152;-63
2022/11/10 09:41:29;;;;;;;21.70;13.55;;;;;;;9.69;71.90;99239.81;5115373;27;20043;-62
2022/11/10 09:44:20;;;;;;;22.83;13.57;;;;;;;9.87;72.18;99238.03;5131397;27;20122;-64
2022/11/10 09:47:19;;;;;;;24.50;12.93;;;;;;;9.86;72.02;99241.72;5096039;27;20035;-68
2022/11/10 09:50:06;;;;;;;22.58;13.93;;;;;;;9.80;72.13;99247.97;5100640;27;20035;-67
2022/11/10 09:52:52;;;;;;;25.63;13.73;;;;;;;9.74;72.80;99255.00;5096856;27;20075;-66
2022/11/10 09:55:45;;;;;;;22.75;12.93;;;;;;;9.74;72.47;99255.78;5111354;27;20092;-65
2022/11/10 09:58:50;;;;;;;20.65;12.85;;;;;;;9.86;71.65;99262.91;5114541;27;20039;-66
2022/11/10 10:01:40;;;;;;;23.08;13.50;;;;;;;9.92;71.33;99259.31;5115895;27;20527;-66
2022/11/10 10:04:44;;;;;;;21.10;13.15;;;;;;;9.78;72.56;99248.19;5116596;27;20449;-66
2022/11/10 10:07:41;;;;;;;24.25;13.45;;;;;;;9.69;73.00;99246.94;5130768;27;20092;-65
2022/11/10 10:10:33;;;;;;;26.38;13.82;;;;;;;9.67;72.91;99243.72;5114595;27;20035;-64
2022/11/10 10:13:46;;;;;;;25.27;14.00;;;;;;;9.75;72.92;99256.59;5098155;27;20534;-67
2022/11/10 10:16:44;;;;;;;25.02;13.55;;;;;;;9.58;73.02;99258.34;5084067;27;20058;-66
2022/11/10 10:19:50;;;;;;;28.13;14.38;;;;;;;9.58;73.17;99255.72;5129713;27;20058;-68
2022/11/10 10:22:44;;;;;;;23.67;14.00;;;;;;;9.67;72.51;99257.75;5095866;28;20492;-67
2022/11/10 10:25:30;;;;;;;24.58;14.35;;;;;;;9.77;72.12;99260.63;5092899;28;20051;-65
2022/11/10 10:28:17;;;;;;;25.45;14.70;;;;;;;9.94;71.85;99273.09;5092450;28;20045;-65
2022/11/10 10:31:23;;;;;;;23.90;14.23;;;;;;;9.90;71.90;99277.25;5108757;28;20051;-66
2022/11/10 10:34:17;;;;;;;29.48;14.35;;;;;;;9.96;71.87;99276.31;5094469;28;20127;-64
2022/11/10 10:37:01;;;;;;;27.60;14.77;;;;;;;10.02;71.24;99268.22;5111031;28;20054;-65
2022/11/10 10:39:49;;;;;;;25.40;15.02;;;;;;;10.12;70.76;99266.84;5111072;28;20036;-65
2022/11/10 10:42:35;;;;;;;24.00;13.90;;;;;;;10.11;70.76;99268.66;5094183;28;20096;-65
2022/11/10 10:45:28;;;;;;;26.70;15.25;;;;;;;10.02;71.62;99270.06;5109467;28;20043;-66
2022/11/10 10:48:25;;;;;;;25.98;15.13;;;;;;;9.98;71.92;99267.09;5095286;28;20134;-66
2022/11/10 10:51:10;;;;;;;23.23;13.45;;;;;;;9.89;71.76;99267.72;5093941;28;20087;-65
2022/11/10 10:53:55;;;;;;;27.55;14.65;;;;;;;9.81;71.77;99268.88;5110148;28;20561;-65
2022/11/10 10:56:40;;;;;;;28.42;15.30;;;;;;;9.80;72.05;99264.63;5091011;28;20047;-65
2022/11/10 10:59:26;;;;;;;25.05;15.05;;;;;;;9.67;72.69;99267.53;5079808;28;20519;-67
2022/11/10 11:02:23;;;;;;;26.58;14.65;;;;;;;9.75;71.99;99275.91;5093861;28;20057;-68
2022/11/10 11:05:20;;;;;;;22.77;13.15;;;;;;;9.85;72.36;99266.56;5108612;28;20043;-67
2022/11/10 11:08:04;;;;;;;27.17;14.35;;;;;;;9.85;72.26;99269.22;5093540;28;20074;-67
2022/11/10 11:10:49;;;;;;;23.92;14.40;;;;;;;9.85;72.10;99272.66;5092622;28;20050;-66
2022/11/10 11:13:33;;;;;;;23.92;14.82;;;;;;;9.52;72.10;99223.06;5093141;28;20039;-66
2022/11/10 11:16:18;;;;;;;28.98;15.23;;;;;;;9.75;72.39;99257.41;5109148;28;20085;-66
2022/11/10 11:19:09;;;;;;;27.58;14.55;;;;;;;9.65;72.74;99249.25;5090798;28;20086;-64
2022/11/10 11:22:13;;;;;;;28.42;14.98;;;;;;;9.78;72.75;99264.06;5094771;28;20092;-66
2022/11/10 11:25:25;;;;;;;27.60;15.00;;;;;;;9.76;72.99;99266.13;5098835;28;20059;-66
2022/11/10 11:28:27;;;;;;;27.50;14.40;;;;;;;9.70;72.29;99275.81;5113476;28;20075;-66
2022/11/10 11:31:22;;;;;;;26.80;15.18;;;;;;;9.75;73.26;99280.41;5099050;28;20546;-67
2022/11/10 11:34:09;;;;;;;25.20;14.15;;;;;;;9.66;73.00;99272.03;5099033;28;20067;-66
2022/11/10 11:37:01;;;;;;;29.10;15.68;;;;;;;9.63;72.94;99280.44;5095474;28;20138;-67
2022/11/10 11:40:15;;;;;;;29.02;13.90;;;;;;;9.61;72.87;99277.22;5096818;28;20039;-67
2022/11/10 11:43:07;;;;;;;24.17;14.82;;;;;;;9.62;73.69;99264.78;5085912;28;20063;-67
2022/11/10 11:46:50;;;;;;;29.00;14.85;;;;;;;9.66;73.00;99266.75;5080532;28;20040;-66
2022/11/10 11:49:45;;;;;;;28.15;15.60;;;;;;;9.66;73.20;99264.09;5015385;28;20182;-67
2022/11/10 11:52:58;;;;;;;30.63;15.52;;;;;;;9.67;73.58;99265.69;5013297;28;20056;-67
2022/11/10 11:56:00;;;;;;;30.50;15.38;;;;;;;9.68;73.11;99250.66;5094703;28;20048;-66
2022/11/10 11:59:08;;;;;;;26.83;14.82;;;;;;;9.66;72.83;99264.09;5111461;28;20071;-66
2022/11/10 12:02:02;;;;;;;26.38;15.43;;;;;;;9.57;73.67;99262.84;5096024;28;20113;-66
2022/11/10 12:05:07;;;;;;;30.63;15.63;;;;;;;9.61;73.80;99274.56;5093561;28;20423;-66
2022/11/10 12:07:51;;;;;;;26.90;14.73;;;;;;;9.67;73.40;99281.56;5093828;28;20050;-65
2022/11/10 12:11:03;;;;;;;31.20;16.45;;;;;;;9.62;72.84;99285.97;5112511;27;20047;-65
2022/11/10 12:14:00;;;;;;;30.52;15.68;;;;;;;9.55;73.69;99284.25;5117272;27;20051;-66
2022/11/10 12:16:57;;;;;;;29.38;15.95;;;;;;;9.55;73.53;99294.81;5100845;27;20079;-66
2022/11/10 12:20:14;;;;;;;25.15;15.75;;;;;;;9.51;73.90;99285.75;5114358;27;20038;-66
2022/11/10 12:23:09;;;;;;;29.52;16.10;;;;;;;9.59;73.80;99295.19;5131052;27;20650;-68
2022/11/10 12:26:18;;;;;;;31.30;17.63;;;;;;;9.49;73.86;99293.13;5130618;27;20047;-67
2022/11/10 12:29:25;;;;;;;28.33;16.50;;;;;;;9.44;74.02;99295.66;5115204;27;20089;-66
2022/11/10 12:32:26;;;;;;;28.85;15.18;;;;;;;9.38;75.18;99293.94;5131578;27;20054;-64
2022/11/10 12:35:21;;;;;;;30.50;16.67;;;;;;;9.39;74.32;99298.19;5131611;27;20035;-66
2022/11/10 12:38:27;;;;;;;33.78;17.40;;;;;;;9.37;74.25;99291.53;5117239;27;20074;-66
2022/11/10 12:41:18;;;;;;;32.78;16.45;;;;;;;9.41;74.64;99296.13;5101077;27;20254;-66
2022/11/10 12:44:19;;;;;;;29.30;16.63;;;;;;;9.37;74.43;99291.53;5085270;27;20031;-65
2022/11/10 12:47:11;;;;;;;29.55;16.38;;;;;;;9.36;74.43;99305.81;5097874;27;20066;-65
2022/11/10 12:50:23;;;;;;;27.20;15.75;;;;;;;9.33;75.21;99299.94;5098522;27;20150;-65
2022/11/10 12:53:22;;;;;;;30.40;17.02;;;;;;;9.26;75.39;99311.66;5097248;27;20423;-65
2022/11/10 12:56:15;;;;;;;26.58;15.27;;;;;;;9.23;75.75;99304.97;5114596;27;20047;-66
2022/11/10 12:59:19;;;;;;;26.60;15.02;;;;;;;9.21;75.69;99301.78;5097374;27;20035;-67
2022/11/10 13:02:31;;;;;;;27.80;15.60;;;;;;;9.26;75.13;99306.34;5074026;27;20412;-68
2022/11/10 13:05:25;;;;;;;27.45;15.65;;;;;;;9.16;75.94;99295.56;5099925;27;20043;-66
2022/11/10 13:08:26;;;;;;;29.42;15.25;;;;;;;9.20;75.52;99294.06;5129584;27;20039;-67
2022/11/10 13:11:10;;;;;;;;;;;;;;;9.25;75.21;99302.13;5081376;27;20622;-66
2022/11/10 13:13:59;;;;;;;30.73;15.80;;;;;;;9.17;75.86;99299.81;5128607;27;19919;-66
2022/11/10 13:16:43;;;;;;;29.95;15.45;;;;;;;9.25;75.52;99302.13;5130511;27;20046;-65
2022/11/10 13:19:28;;;;;;;28.27;16.23;;;;;;;9.22;75.51;99307.88;5110636;27;20047;-66